Time;durP1;ratioP1;P1;durP2;ratioP2;P2;SDS_P1;SDS_P2;PMS_P1;PMS_P2;Temp;Humidity;BMP_temperature;BMP_pressure;BME280_temperature;BME280_humidity;BME280_pressure;Samples;Min_cycle;Max_cycle;Signal;HPM_P1;HPM_P2
2021/12/19 00:01:10;;;;;;;32.47;17.52;;;;;;;;;;5064708;28;20417;-49
2021/12/19 00:09:04;;;;;;;30.35;15.23;;;;;;;;;;5064762;28;20131;-48
2021/12/19 00:11:31;;;;;;;29.13;15.98;;;;;;;;;;5065097;28;20166;-48
2021/12/19 00:13:57;;;;;;;28.17;15.13;;;;;;;;;;5064261;28;20039;-49
2021/12/19 00:16:24;;;;;;;30.17;15.85;;;;;;;;;;5044895;28;20029;-48
2021/12/19 00:18:52;;;;;;;31.92;16.02;;;;;;;;;;5044942;28;20024;-48
2021/12/19 00:21:19;;;;;;;29.25;15.32;;;;;;;;;;5045115;28;20040;-48
2021/12/19 00:23:46;;;;;;;29.98;15.45;;;;;;;;;;5048792;28;20008;-51
2021/12/19 00:26:13;;;;;;;28.67;14.90;;;;;;;;;;5065017;28;20502;-49
2021/12/19 00:28:40;;;;;;;27.55;14.68;;;;;;;;;;5065023;28;20067;-49
2021/12/19 00:31:07;;;;;;;27.60;15.40;;;;;;;;;;5046104;28;20566;-48
2021/12/19 00:33:33;;;;;;;30.33;15.88;;;;;;;;;;5063336;28;20415;-48
2021/12/19 00:35:59;;;;;;;27.70;15.57;;;;;;;;;;5064621;28;20513;-48
2021/12/19 00:38:26;;;;;;;29.02;14.60;;;;;;;;;;5063440;28;20453;-49
2021/12/19 00:40:53;;;;;;;26.98;14.75;;;;;;;;;;5064652;28;20036;-48
2021/12/19 00:43:33;;;;;;;26.30;14.48;;;;;;;;;;5064864;28;20115;-52
2021/12/19 00:46:06;;;;;;;27.42;14.65;;;;;;;;;;5063563;28;20024;-50
2021/12/19 00:48:32;;;;;;;24.70;13.88;;;;;;;;;;5064780;28;20036;-51
2021/12/19 00:50:59;;;;;;;29.92;15.85;;;;;;;;;;5064591;28;20025;-50
2021/12/19 00:53:25;;;;;;;28.00;14.35;;;;;;;;;;5063739;28;20090;-48
2021/12/19 00:55:52;;;;;;;30.38;15.18;;;;;;;;;;5064800;28;20063;-50
2021/12/19 00:58:18;;;;;;;32.25;16.80;;;;;;;;;;5047209;28;20039;-51
2021/12/19 01:00:44;;;;;;;29.50;15.52;;;;;;;;;;5064664;28;20442;-50
2021/12/19 01:03:10;;;;;;;33.13;17.48;;;;;;;;;;5064154;28;20028;-51
2021/12/19 01:05:38;;;;;;;34.35;17.35;;;;;;;;;;5063380;28;20032;-52
2021/12/19 01:08:05;;;;;;;32.00;16.38;;;;;;;;;;5063161;28;20031;-51
2021/12/19 01:10:31;;;;;;;33.90;17.35;;;;;;;;;;5063583;28;20036;-51
2021/12/19 01:12:57;;;;;;;31.40;15.90;;;;;;;;;;5064521;28;20033;-47
2021/12/19 01:15:24;;;;;;;31.58;16.48;;;;;;;;;;5062550;28;20025;-48
2021/12/19 01:17:51;;;;;;;34.75;16.38;;;;;;;;;;5068053;28;20039;-48
2021/12/19 01:20:20;;;;;;;34.10;17.33;;;;;;;;;;5068963;28;20036;-51
2021/12/19 01:22:46;;;;;;;32.60;17.00;;;;;;;;;;5068681;28;20073;-49
2021/12/19 01:25:12;;;;;;;29.83;15.82;;;;;;;;;;5065972;28;20115;-48
2021/12/19 01:27:39;;;;;;;33.75;16.80;;;;;;;;;;5068399;28;20028;-48
2021/12/19 01:30:06;;;;;;;33.13;16.88;;;;;;;;;;5067727;28;20569;-48
2021/12/19 01:32:34;;;;;;;32.05;15.90;;;;;;;;;;5067824;28;20028;-48
2021/12/19 01:35:01;;;;;;;35.35;17.65;;;;;;;;;;5067489;28;20027;-48
2021/12/19 01:37:28;;;;;;;38.40;18.15;;;;;;;;;;5068135;28;20043;-48
2021/12/19 01:39:54;;;;;;;35.10;16.27;;;;;;;;;;5068264;28;20044;-48
2021/12/19 01:42:20;;;;;;;35.75;17.40;;;;;;;;;;5067893;28;21228;-48
2021/12/19 01:44:48;;;;;;;33.78;17.45;;;;;;;;;;5067702;28;20062;-48
2021/12/19 01:47:14;;;;;;;29.40;15.90;;;;;;;;;;5067474;28;20039;-47
2021/12/19 01:49:41;;;;;;;29.20;15.15;;;;;;;;;;5067821;28;20085;-48
2021/12/19 01:52:08;;;;;;;26.40;14.13;;;;;;;;;;5067325;28;20051;-48
2021/12/19 01:54:35;;;;;;;28.13;16.10;;;;;;;;;;5066324;28;20027;-48
2021/12/19 01:57:02;;;;;;;26.67;15.68;;;;;;;;;;5065254;28;20029;-51
2021/12/19 01:59:28;;;;;;;31.13;16.70;;;;;;;;;;5067681;28;20522;-52
2021/12/19 02:01:55;;;;;;;30.98;17.52;;;;;;;;;;5067301;28;20024;-49
2021/12/19 02:04:22;;;;;;;27.90;14.82;;;;;;;;;;5066265;28;20476;-48
2021/12/19 02:06:48;;;;;;;29.00;15.70;;;;;;;;;;5050165;28;20099;-48
2021/12/19 02:09:14;;;;;;;28.15;15.15;;;;;;;;;;5067220;28;20408;-51
2021/12/19 02:11:42;;;;;;;37.13;18.35;;;;;;;;;;5067205;28;20021;-48
2021/12/19 02:14:09;;;;;;;35.20;17.60;;;;;;;;;;5066577;28;20436;-49
2021/12/19 02:16:37;;;;;;;41.45;19.52;;;;;;;;;;5066822;28;20336;-47
2021/12/19 02:19:03;;;;;;;38.38;19.50;;;;;;;;;;5066878;28;20074;-47
2021/12/19 02:21:30;;;;;;;35.30;17.38;;;;;;;;;;5066617;28;20493;-47
2021/12/19 02:23:57;;;;;;;34.15;16.80;;;;;;;;;;5067172;28;20028;-47
2021/12/19 02:26:23;;;;;;;34.88;16.70;;;;;;;;;;5066070;28;20569;-47
2021/12/19 02:28:49;;;;;;;34.72;16.25;;;;;;;;;;5066687;28;20033;-48
2021/12/19 02:31:16;;;;;;;33.05;16.27;;;;;;;;;;5066855;28;20021;-48
2021/12/19 02:33:53;;;;;;;29.00;14.43;;;;;;;;;;5066878;28;20103;-48
2021/12/19 02:36:29;;;;;;;32.13;15.05;;;;;;;;;;5066136;28;20020;-49
2021/12/19 02:39:22;;;;;;;25.73;13.80;;;;;;;;;;5067292;28;20488;-48
2021/12/19 02:50:06;;;;;;;29.55;15.02;;;;;;;;;;5046221;28;20407;-49
2021/12/19 02:52:33;;;;;;;28.00;13.60;;;;;;;;;;5049222;28;20170;-48
2021/12/19 02:54:59;;;;;;;29.20;14.52;;;;;;;;;;5065783;28;20031;-48
2021/12/19 02:57:25;;;;;;;26.83;13.68;;;;;;;;;;5066413;28;20032;-48
2021/12/19 02:59:52;;;;;;;29.40;13.98;;;;;;;;;;5066517;28;20035;-48
2021/12/19 03:02:18;;;;;;;27.92;13.18;;;;;;;;;;5064554;28;20040;-48
2021/12/19 03:04:57;;;;;;;28.75;13.73;;;;;;;;;;5065433;28;20056;-51
2021/12/19 03:07:24;;;;;;;33.25;15.98;;;;;;;;;;5066269;28;20028;-47
2021/12/19 03:20:21;;;;;;;31.92;15.05;;;;;;;;;;5066256;28;20038;-48
2021/12/19 03:22:47;;;;;;;30.13;14.02;;;;;;;;;;5067064;28;20028;-47
2021/12/19 03:25:13;;;;;;;31.35;13.93;;;;;;;;;;5065282;28;20089;-47
2021/12/19 03:27:40;;;;;;;30.23;14.93;;;;;;;;;;5066016;28;20020;-48
2021/12/19 03:30:07;;;;;;;29.25;14.00;;;;;;;;;;5065379;28;20052;-47
2021/12/19 03:32:34;;;;;;;32.47;14.40;;;;;;;;;;5065689;28;20031;-48
2021/12/19 03:35:00;;;;;;;28.50;13.90;;;;;;;;;;5064958;28;20055;-47
2021/12/19 03:37:26;;;;;;;33.80;14.73;;;;;;;;;;5065946;28;20029;-49
2021/12/19 03:39:57;;;;;;;27.02;13.45;;;;;;;;;;5064610;28;20068;-48
2021/12/19 03:42:24;;;;;;;31.45;14.60;;;;;;;;;;5065874;28;20020;-48
2021/12/19 03:44:50;;;;;;;25.42;13.10;;;;;;;;;;5065932;28;20436;-47
2021/12/19 03:47:17;;;;;;;30.88;14.55;;;;;;;;;;5065947;28;20035;-48
2021/12/19 03:49:43;;;;;;;26.65;13.10;;;;;;;;;;5065404;28;20350;-48
2021/12/19 03:52:10;;;;;;;31.73;14.27;;;;;;;;;;5064875;28;20063;-48
2021/12/19 03:54:37;;;;;;;28.02;13.90;;;;;;;;;;5063921;28;20399;-48
2021/12/19 03:57:03;;;;;;;29.52;13.90;;;;;;;;;;5064484;28;20463;-49
2021/12/19 03:59:31;;;;;;;29.08;13.90;;;;;;;;;;5065552;28;20037;-48
2021/12/19 04:01:58;;;;;;;30.95;14.85;;;;;;;;;;5065024;28;20114;-48
2021/12/19 04:04:24;;;;;;;32.53;15.00;;;;;;;;;;5065023;28;20123;-48
2021/12/19 04:06:51;;;;;;;31.58;14.32;;;;;;;;;;5064824;28;20028;-51
2021/12/19 04:09:17;;;;;;;32.50;15.00;;;;;;;;;;5066062;28;20111;-47
2021/12/19 04:11:44;;;;;;;31.95;14.85;;;;;;;;;;5065513;28;20099;-48
2021/12/19 04:14:11;;;;;;;31.80;14.55;;;;;;;;;;5064967;28;20028;-48
2021/12/19 04:16:42;;;;;;;33.45;15.48;;;;;;;;;;5046453;28;20450;-49
2021/12/19 04:19:08;;;;;;;29.60;14.43;;;;;;;;;;5064750;28;20055;-47
2021/12/19 04:21:34;;;;;;;29.20;14.43;;;;;;;;;;5064931;28;20479;-47
2021/12/19 04:24:01;;;;;;;31.02;14.68;;;;;;;;;;5064131;28;20029;-47
2021/12/19 04:26:27;;;;;;;28.73;14.57;;;;;;;;;;5064214;28;20527;-48
2021/12/19 04:28:53;;;;;;;27.58;13.55;;;;;;;;;;5064874;28;20035;-48
2021/12/19 04:31:20;;;;;;;29.38;14.57;;;;;;;;;;5064792;28;20495;-48
2021/12/19 04:33:46;;;;;;;29.45;14.05;;;;;;;;;;5065385;28;20431;-48
2021/12/19 04:36:21;;;;;;;26.60;12.63;;;;;;;;;;5063713;28;20056;-47
2021/12/19 04:39:20;;;;;;;26.60;12.57;;;;;;;;;;5065498;28;20526;-49
2021/12/19 04:42:29;;;;;;;28.85;13.93;;;;;;;;;;5065400;28;20021;-48
2021/12/19 04:58:12;;;;;;;26.42;12.88;;;;;;;;;;5064679;28;20029;-50
2021/12/19 05:00:51;;;;;;;22.35;11.90;;;;;;;;;;5064629;28;20466;-49
2021/12/19 05:16:54;;;;;;;25.17;13.02;;;;;;;;;;5046212;28;20059;-48
2021/12/19 05:19:27;;;;;;;22.90;11.63;;;;;;;;;;5064649;28;20035;-50
2021/12/19 05:21:58;;;;;;;22.25;11.73;;;;;;;;;;5062492;28;20043;-50
2021/12/19 05:27:04;;;;;;;26.05;12.48;;;;;;;;;;5063813;28;20101;-48
2021/12/19 05:29:31;;;;;;;26.30;12.82;;;;;;;;;;5064584;28;20024;-48
2021/12/19 05:31:58;;;;;;;24.58;12.63;;;;;;;;;;5044701;28;20553;-48
2021/12/19 05:34:24;;;;;;;23.88;11.98;;;;;;;;;;5064141;28;20021;-48
2021/12/19 05:47:37;;;;;;;26.90;12.65;;;;;;;;;;5063360;28;20123;-48
2021/12/19 05:50:04;;;;;;;27.67;13.27;;;;;;;;;;5063597;28;20024;-50
2021/12/19 05:52:30;;;;;;;27.13;12.35;;;;;;;;;;5063210;28;20033;-51
2021/12/19 05:54:56;;;;;;;28.65;13.38;;;;;;;;;;5064150;28;20099;-49
2021/12/19 05:57:22;;;;;;;25.33;12.50;;;;;;;;;;5063565;28;20066;-50
2021/12/19 05:59:50;;;;;;;25.63;12.80;;;;;;;;;;5064714;28;20652;-48
2021/12/19 06:02:17;;;;;;;24.90;12.15;;;;;;;;;;5063688;28;20479;-49
2021/12/19 06:04:44;;;;;;;25.20;11.82;;;;;;;;;;5067773;28;20049;-48
2021/12/19 06:07:10;;;;;;;27.88;13.48;;;;;;;;;;5067250;28;20029;-48
2021/12/19 06:09:36;;;;;;;28.67;12.65;;;;;;;;;;5067519;28;20024;-47
2021/12/19 06:12:03;;;;;;;28.30;13.02;;;;;;;;;;5066071;28;20026;-48
2021/12/19 06:14:33;;;;;;;29.90;14.00;;;;;;;;;;5067630;28;20032;-48
2021/12/19 06:17:00;;;;;;;27.55;12.90;;;;;;;;;;5067200;28;20027;-51
2021/12/19 06:19:27;;;;;;;24.95;12.35;;;;;;;;;;5067548;28;20099;-50
2021/12/19 06:21:53;;;;;;;28.08;13.43;;;;;;;;;;5066213;28;20035;-51
2021/12/19 06:24:20;;;;;;;26.48;13.13;;;;;;;;;;5067530;28;20033;-49
2021/12/19 06:26:46;;;;;;;26.55;12.63;;;;;;;;;;5067792;28;20097;-49
2021/12/19 06:29:12;;;;;;;26.77;12.07;;;;;;;;;;5067173;28;20040;-47
2021/12/19 06:31:38;;;;;;;26.48;12.07;;;;;;;;;;5065456;28;20376;-49
2021/12/19 06:34:04;;;;;;;27.80;12.40;;;;;;;;;;5067263;28;20090;-50
2021/12/19 06:36:30;;;;;;;26.50;13.05;;;;;;;;;;5066001;28;20032;-50
2021/12/19 06:38:57;;;;;;;28.27;13.73;;;;;;;;;;5066871;28;20115;-50
2021/12/19 06:41:24;;;;;;;30.08;13.80;;;;;;;;;;5066564;28;20447;-50
2021/12/19 06:43:50;;;;;;;30.70;13.50;;;;;;;;;;5066675;28;20036;-48
2021/12/19 06:46:16;;;;;;;28.52;12.63;;;;;;;;;;5066811;28;20488;-50
2021/12/19 06:48:42;;;;;;;26.52;11.93;;;;;;;;;;5067390;28;20032;-51
2021/12/19 06:51:08;;;;;;;27.45;13.10;;;;;;;;;;5066842;28;20028;-51
2021/12/19 06:53:35;;;;;;;30.92;13.52;;;;;;;;;;5066440;28;20032;-54
2021/12/19 06:56:01;;;;;;;25.05;12.38;;;;;;;;;;5066771;28;20091;-52
2021/12/19 06:58:27;;;;;;;28.98;13.02;;;;;;;;;;5065802;28;20036;-51
2021/12/19 07:00:53;;;;;;;25.65;11.75;;;;;;;;;;5066878;28;20036;-51
2021/12/19 07:03:23;;;;;;;26.20;12.15;;;;;;;;;;5065601;28;20040;-51
2021/12/19 07:05:49;;;;;;;26.92;12.75;;;;;;;;;;5067584;28;20016;-51
2021/12/19 07:08:16;;;;;;;26.65;12.32;;;;;;;;;;5067158;28;20024;-48
2021/12/19 07:10:43;;;;;;;30.00;12.55;;;;;;;;;;5066794;28;20082;-48
2021/12/19 07:13:10;;;;;;;28.48;13.75;;;;;;;;;;5066093;28;20411;-54
2021/12/19 07:15:37;;;;;;;30.42;13.77;;;;;;;;;;5065278;28;20024;-48
2021/12/19 07:18:04;;;;;;;26.75;12.68;;;;;;;;;;5066301;28;20496;-47
2021/12/19 07:20:30;;;;;;;29.40;13.63;;;;;;;;;;5066675;28;20032;-49
2021/12/19 07:22:56;;;;;;;28.92;12.95;;;;;;;;;;5065870;28;20040;-48
2021/12/19 07:25:23;;;;;;;28.40;13.10;;;;;;;;;;5067000;28;20137;-48
2021/12/19 07:27:49;;;;;;;29.50;13.65;;;;;;;;;;5064574;28;20028;-49
2021/12/19 07:30:15;;;;;;;30.30;12.68;;;;;;;;;;5076363;28;20662;-49
2021/12/19 07:32:41;;;;;;;30.50;13.35;;;;;;;;;;5060828;28;21064;-48
2021/12/19 07:35:09;;;;;;;32.85;13.30;;;;;;;;;;5064454;28;20021;-49
2021/12/19 07:37:38;;;;;;;27.67;12.52;;;;;;;;;;5068318;28;20043;-48
2021/12/19 07:40:16;;;;;;;29.83;12.60;;;;;;;;;;5066876;28;20033;-47
2021/12/19 07:42:42;;;;;;;29.63;13.00;;;;;;;;;;5065432;28;20662;-51
2021/12/19 07:45:10;;;;;;;28.33;12.93;;;;;;;;;;5066643;28;20082;-48
2021/12/19 07:47:38;;;;;;;30.35;12.98;;;;;;;;;;5067526;28;20031;-48
2021/12/19 07:50:05;;;;;;;29.33;12.63;;;;;;;;;;5071544;28;20075;-47
2021/12/19 07:52:31;;;;;;;31.30;13.15;;;;;;;;;;5083294;28;20106;-48
2021/12/19 07:54:57;;;;;;;29.08;13.13;;;;;;;;;;5065111;28;20149;-48
2021/12/19 07:57:23;;;;;;;32.25;14.50;;;;;;;;;;5066694;28;20479;-48
2021/12/19 07:59:49;;;;;;;30.55;12.80;;;;;;;;;;5066599;28;20022;-49
2021/12/19 08:02:15;;;;;;;27.17;12.68;;;;;;;;;;5061186;28;20036;-48
2021/12/19 08:04:41;;;;;;;32.15;13.93;;;;;;;;;;5066658;28;20024;-48
2021/12/19 08:07:11;;;;;;;27.23;12.52;;;;;;;;;;5066276;28;20032;-50
2021/12/19 08:09:40;;;;;;;27.13;12.18;;;;;;;;;;5066892;28;20048;-52
2021/12/19 08:12:07;;;;;;;32.55;12.52;;;;;;;;;;5064858;28;20051;-49
2021/12/19 08:14:33;;;;;;;30.17;13.35;;;;;;;;;;5067258;28;20025;-50
2021/12/19 08:16:59;;;;;;;27.20;12.23;;;;;;;;;;5065746;28;20024;-49
2021/12/19 08:19:26;;;;;;;26.50;11.65;;;;;;;;;;5066145;28;20039;-49
2021/12/19 08:21:53;;;;;;;29.50;12.50;;;;;;;;;;5066173;28;20490;-48
2021/12/19 08:24:19;;;;;;;29.63;13.38;;;;;;;;;;5066166;28;20096;-51
2021/12/19 08:26:46;;;;;;;27.55;12.48;;;;;;;;;;5065777;28;20039;-51
2021/12/19 08:29:13;;;;;;;28.08;12.45;;;;;;;;;;5064868;28;20069;-52
2021/12/19 08:31:39;;;;;;;31.02;13.48;;;;;;;;;;5063847;28;20020;-48
2021/12/19 08:34:06;;;;;;;28.70;12.55;;;;;;;;;;5065978;28;20028;-51
2021/12/19 08:36:32;;;;;;;28.20;12.73;;;;;;;;;;5065739;28;20091;-49
2021/12/19 08:38:58;;;;;;;30.27;12.80;;;;;;;;;;5064549;28;20107;-50
2021/12/19 08:41:24;;;;;;;28.42;12.05;;;;;;;;;;5082102;28;20103;-52
2021/12/19 08:43:50;;;;;;;28.85;12.32;;;;;;;;;;5083584;28;20131;-51
2021/12/19 08:46:17;;;;;;;26.10;11.63;;;;;;;;;;5064925;28;20028;-51
2021/12/19 08:48:43;;;;;;;30.50;12.70;;;;;;;;;;5064321;28;20025;-51
2021/12/19 08:51:09;;;;;;;31.60;14.13;;;;;;;;;;5078925;28;20023;-48
2021/12/19 08:53:35;;;;;;;30.10;13.48;;;;;;;;;;5086825;28;20035;-48
2021/12/19 08:56:02;;;;;;;29.25;12.95;;;;;;;;;;5066572;28;20027;-52
2021/12/19 08:58:29;;;;;;;28.42;12.20;;;;;;;;;;5066223;28;20426;-51
2021/12/19 09:01:00;;;;;;;32.72;13.95;;;;;;;;;;5065123;28;20115;-51
2021/12/19 09:03:31;;;;;;;28.27;13.20;;;;;;;;;;5066091;28;20175;-51
2021/12/19 09:05:58;;;;;;;29.92;12.13;;;;;;;;;;5066005;28;20024;-49
2021/12/19 09:08:24;;;;;;;28.75;13.38;;;;;;;;;;5064817;28;20033;-50
2021/12/19 09:10:50;;;;;;;28.70;13.43;;;;;;;;;;5066658;28;20020;-51
2021/12/19 09:13:16;;;;;;;32.38;12.98;;;;;;;;;;5066406;28;20032;-51
2021/12/19 09:15:42;;;;;;;28.05;12.60;;;;;;;;;;5065383;28;20096;-49
2021/12/19 09:18:08;;;;;;;28.52;12.82;;;;;;;;;;5064096;28;20037;-51
2021/12/19 09:20:34;;;;;;;30.35;12.68;;;;;;;;;;5058910;28;20602;-51
2021/12/19 09:23:01;;;;;;;28.60;12.70;;;;;;;;;;5064986;28;20068;-49
2021/12/19 09:25:27;;;;;;;28.83;13.32;;;;;;;;;;5065588;28;20033;-51
2021/12/19 09:27:53;;;;;;;31.25;12.70;;;;;;;;;;5068383;28;20024;-49
2021/12/19 09:30:19;;;;;;;28.33;12.63;;;;;;;;;;5066738;28;20040;-48
2021/12/19 09:32:45;;;;;;;26.27;11.65;;;;;;;;;;5067343;28;20028;-50
2021/12/19 09:35:14;;;;;;;26.13;12.10;;;;;;;;;;5082007;28;20035;-49
2021/12/19 09:37:40;;;;;;;28.60;11.90;;;;;;;;;;5065110;28;20707;-48
2021/12/19 09:40:10;;;;;;;29.30;12.18;;;;;;;;;;5067967;28;20450;-49
2021/12/19 09:42:37;;;;;;;28.15;12.40;;;;;;;;;;5069320;28;20028;-50
2021/12/19 09:45:04;;;;;;;28.95;12.35;;;;;;;;;;5066587;28;20455;-49
2021/12/19 09:47:31;;;;;;;26.35;12.05;;;;;;;;;;5066928;28;20032;-49
2021/12/19 09:49:57;;;;;;;24.08;12.10;;;;;;;;;;5069737;28;20036;-48
2021/12/19 09:52:24;;;;;;;26.35;12.13;;;;;;;;;;5069812;28;20020;-52
2021/12/19 09:54:50;;;;;;;25.27;12.05;;;;;;;;;;5066763;28;20016;-52
2021/12/19 09:57:16;;;;;;;23.20;10.60;;;;;;;;;;5057632;28;20028;-50
2021/12/19 09:59:43;;;;;;;23.70;11.00;;;;;;;;;;5069702;28;20434;-52
2021/12/19 10:02:09;;;;;;;23.15;11.50;;;;;;;;;;5069274;28;20032;-48
2021/12/19 10:04:36;;;;;;;24.10;11.30;;;;;;;;;;5062233;28;20029;-51
2021/12/19 10:07:07;;;;;;;21.80;10.52;;;;;;;;;;5056430;28;20033;-50
2021/12/19 10:09:33;;;;;;;20.13;9.35;;;;;;;;;;5069560;28;20016;-49
2021/12/19 10:12:22;;;;;;;19.83;10.30;;;;;;;;;;5069419;28;20154;-49
2021/12/19 10:14:48;;;;;;;19.05;9.65;;;;;;;;;;5071680;28;20415;-51
2021/12/19 10:17:19;;;;;;;19.38;9.70;;;;;;;;;;5050767;28;20029;-51
2021/12/19 10:19:49;;;;;;;20.30;9.60;;;;;;;;;;5075243;28;20028;-51
2021/12/19 10:22:29;;;;;;;21.77;10.30;;;;;;;;;;5068413;28;20036;-51
2021/12/19 10:24:57;;;;;;;22.92;10.68;;;;;;;;;;5069402;28;20038;-51
2021/12/19 10:27:33;;;;;;;23.83;10.70;;;;;;;;;;5051332;28;20590;-51
2021/12/19 10:29:59;;;;;;;24.65;10.70;;;;;;;;;;5068562;28;20103;-48
2021/12/19 10:32:25;;;;;;;22.42;10.60;;;;;;;;;;5069039;28;20074;-49
2021/12/19 10:34:51;;;;;;;21.52;9.80;;;;;;;;;;5068261;28;20051;-51
2021/12/19 10:37:33;;;;;;;24.58;10.68;;;;;;;;;;5069404;28;20071;-51
2021/12/19 10:40:03;;;;;;;26.35;11.13;;;;;;;;;;5069112;28;20594;-50
2021/12/19 10:42:34;;;;;;;28.27;12.60;;;;;;;;;;5069132;28;20490;-51
2021/12/19 10:47:46;;;;;;;30.63;13.38;;;;;;;;;;5069308;28;20581;-50
2021/12/19 10:50:12;;;;;;;42.70;19.25;;;;;;;;;;5050406;28;20673;-52
2021/12/19 10:52:39;;;;;;;43.80;20.63;;;;;;;;;;5068523;28;20059;-53
2021/12/19 10:55:08;;;;;;;41.72;18.17;;;;;;;;;;5068408;28;20075;-52
2021/12/19 10:57:36;;;;;;;36.70;16.58;;;;;;;;;;5069139;28;20027;-52
2021/12/19 11:00:05;;;;;;;35.95;15.80;;;;;;;;;;5068190;28;20028;-49
2021/12/19 11:02:48;;;;;;;30.40;13.65;;;;;;;;;;5069049;28;20037;-51
2021/12/19 11:05:35;;;;;;;27.92;12.52;;;;;;;;;;5048355;28;20025;-52
2021/12/19 11:08:06;;;;;;;25.70;11.55;;;;;;;;;;5047398;28;20025;-52
2021/12/19 11:10:33;;;;;;;24.77;11.48;;;;;;;;;;5048580;28;20213;-51
2021/12/19 11:13:06;;;;;;;24.17;11.88;;;;;;;;;;5065683;28;20037;-51
2021/12/19 11:15:32;;;;;;;25.55;11.40;;;;;;;;;;5068444;28;20889;-52
2021/12/19 11:17:58;;;;;;;25.08;11.55;;;;;;;;;;5068356;28;20479;-52
2021/12/19 11:20:24;;;;;;;21.98;10.13;;;;;;;;;;5066973;28;20024;-52
2021/12/19 11:22:50;;;;;;;23.85;11.05;;;;;;;;;;5067327;28;20707;-52
2021/12/19 11:25:16;;;;;;;23.92;10.55;;;;;;;;;;5068460;28;20520;-52
2021/12/19 11:27:44;;;;;;;21.38;9.90;;;;;;;;;;5068129;28;20025;-52
2021/12/19 11:30:12;;;;;;;21.20;10.27;;;;;;;;;;5067410;28;20036;-50
2021/12/19 11:32:44;;;;;;;22.48;10.05;;;;;;;;;;5065946;28;20487;-52
2021/12/19 11:35:15;;;;;;;24.40;10.15;;;;;;;;;;5068529;28;20025;-51
2021/12/19 11:37:43;;;;;;;22.77;9.95;;;;;;;;;;5066895;28;20033;-52
2021/12/19 11:40:10;;;;;;;21.27;10.10;;;;;;;;;;5067391;28;20541;-50
2021/12/19 11:42:37;;;;;;;22.92;10.15;;;;;;;;;;5067888;28;20035;-52
2021/12/19 11:47:55;;;;;;;20.08;8.98;;;;;;;;;;5068291;28;20032;-52
2021/12/19 11:50:27;;;;;;;24.55;11.77;;;;;;;;;;5066506;28;20020;-53
2021/12/19 11:52:57;;;;;;;21.90;11.15;;;;;;;;;;5066884;28;20028;-53
2021/12/19 11:55:26;;;;;;;24.23;11.85;;;;;;;;;;5074054;28;20032;-50
2021/12/19 11:58:13;;;;;;;25.20;11.65;;;;;;;;;;5062477;28;20032;-49
2021/12/19 12:00:40;;;;;;;20.17;9.98;;;;;;;;;;5059060;28;20036;-52
2021/12/19 12:03:12;;;;;;;22.35;9.50;;;;;;;;;;5066960;28;20059;-52
2021/12/19 12:05:39;;;;;;;20.30;8.32;;;;;;;;;;5066187;28;20032;-51
2021/12/19 12:08:05;;;;;;;17.85;8.55;;;;;;;;;;5065287;28;20032;-53
2021/12/19 12:10:49;;;;;;;17.80;8.60;;;;;;;;;;5071321;28;20017;-51
2021/12/19 12:13:36;;;;;;;19.73;8.80;;;;;;;;;;5067665;28;20029;-53
2021/12/19 12:18:53;;;;;;;17.10;8.13;;;;;;;;;;5067860;28;20737;-52
2021/12/19 12:21:26;;;;;;;18.52;8.00;;;;;;;;;;5064755;28;20043;-52
2021/12/19 12:24:00;;;;;;;20.25;9.45;;;;;;;;;;5062903;28;20029;-53
2021/12/19 12:26:28;;;;;;;22.73;9.77;;;;;;;;;;5067116;28;20021;-52
2021/12/19 12:28:55;;;;;;;19.15;8.68;;;;;;;;;;5066987;28;20024;-51
2021/12/19 12:31:21;;;;;;;21.50;9.50;;;;;;;;;;5068196;28;20024;-52
2021/12/19 12:33:47;;;;;;;21.60;9.27;;;;;;;;;;5087853;28;20020;-51
2021/12/19 12:36:15;;;;;;;20.92;9.05;;;;;;;;;;5071681;28;20021;-53
2021/12/19 12:38:46;;;;;;;21.40;9.65;;;;;;;;;;5066026;28;20036;-52
2021/12/19 12:41:26;;;;;;;20.90;8.73;;;;;;;;;;5065634;28;20395;-53
2021/12/19 12:43:52;;;;;;;19.88;9.32;;;;;;;;;;5063549;28;20075;-51
2021/12/19 12:46:23;;;;;;;20.38;10.50;;;;;;;;;;5065703;28;20040;-51
2021/12/19 12:49:03;;;;;;;19.60;8.43;;;;;;;;;;5067386;28;20055;-52
2021/12/19 12:51:31;;;;;;;19.38;9.50;;;;;;;;;;5066745;28;20073;-52
2021/12/19 12:54:03;;;;;;;22.35;8.95;;;;;;;;;;5065637;28;21033;-51
2021/12/19 12:56:34;;;;;;;19.33;8.60;;;;;;;;;;5066686;28;20525;-52
2021/12/19 12:59:00;;;;;;;19.10;8.55;;;;;;;;;;5054359;28;20032;-51
2021/12/19 13:01:26;;;;;;;20.65;8.10;;;;;;;;;;5047021;28;20036;-50
2021/12/19 13:03:55;;;;;;;18.80;8.75;;;;;;;;;;5055952;28;20032;-49
2021/12/19 13:06:40;;;;;;;17.63;7.93;;;;;;;;;;5063075;28;20552;-53
2021/12/19 13:09:10;;;;;;;22.63;9.05;;;;;;;;;;5074337;28;20802;-53
2021/12/19 13:11:37;;;;;;;17.35;7.65;;;;;;;;;;5087977;28;20055;-51
2021/12/19 13:14:12;;;;;;;17.45;7.43;;;;;;;;;;5074420;28;20028;-51
2021/12/19 13:16:49;;;;;;;17.65;8.07;;;;;;;;;;5068820;28;20064;-51
2021/12/19 13:19:35;;;;;;;19.02;8.82;;;;;;;;;;5067483;28;20028;-51
2021/12/19 13:22:01;;;;;;;22.00;9.00;;;;;;;;;;5084535;28;20023;-52
2021/12/19 13:24:28;;;;;;;18.65;8.77;;;;;;;;;;5068851;28;20032;-52
2021/12/19 13:27:13;;;;;;;18.52;8.70;;;;;;;;;;5070418;28;20020;-52
2021/12/19 13:29:40;;;;;;;20.90;9.45;;;;;;;;;;5069997;28;20056;-52
2021/12/19 13:32:16;;;;;;;17.42;8.18;;;;;;;;;;5068049;28;20034;-52
2021/12/19 13:34:42;;;;;;;17.75;8.60;;;;;;;;;;5070200;28;20027;-50
2021/12/19 13:37:08;;;;;;;19.98;8.15;;;;;;;;;;5050729;28;20796;-52
2021/12/19 13:39:35;;;;;;;20.70;9.35;;;;;;;;;;5069711;28;20048;-53
2021/12/19 13:42:11;;;;;;;18.77;9.02;;;;;;;;;;5051705;28;20581;-53
2021/12/19 13:44:37;;;;;;;20.75;9.15;;;;;;;;;;5069872;28;20422;-52
2021/12/19 13:47:33;;;;;;;17.67;7.88;;;;;;;;;;5069964;28;20031;-52
2021/12/19 13:49:59;;;;;;;18.17;8.07;;;;;;;;;;5056652;28;20119;-53
2021/12/19 13:52:25;;;;;;;17.60;8.20;;;;;;;;;;5069839;28;20024;-52
2021/12/19 13:55:04;;;;;;;17.33;8.73;;;;;;;;;;5070586;28;20025;-52
2021/12/19 13:57:30;;;;;;;17.65;7.60;;;;;;;;;;5069793;28;20399;-54
2021/12/19 13:59:56;;;;;;;17.77;8.57;;;;;;;;;;5068853;28;20044;-52
2021/12/19 14:02:23;;;;;;;17.80;8.43;;;;;;;;;;5068575;28;20032;-53
2021/12/19 14:04:50;;;;;;;18.35;8.07;;;;;;;;;;5069960;28;20028;-52
2021/12/19 14:07:20;;;;;;;18.58;8.35;;;;;;;;;;5066253;28;20029;-53
2021/12/19 14:09:46;;;;;;;18.35;8.93;;;;;;;;;;5067382;28;20024;-53
2021/12/19 14:12:27;;;;;;;19.02;9.75;;;;;;;;;;5068300;28;20025;-51
2021/12/19 14:14:53;;;;;;;17.85;8.40;;;;;;;;;;5069242;28;20450;-53
2021/12/19 14:17:19;;;;;;;18.45;9.02;;;;;;;;;;5068811;28;20166;-50
2021/12/19 14:19:49;;;;;;;18.42;8.05;;;;;;;;;;5069011;28;20542;-51
2021/12/19 14:22:16;;;;;;;16.38;7.70;;;;;;;;;;5068879;28;20024;-50
2021/12/19 14:24:48;;;;;;;18.90;8.75;;;;;;;;;;5066932;28;20064;-50
2021/12/19 14:27:15;;;;;;;17.95;8.88;;;;;;;;;;5068071;28;20040;-51
2021/12/19 14:29:53;;;;;;;17.33;8.40;;;;;;;;;;5067641;28;20104;-54
2021/12/19 14:32:33;;;;;;;14.80;7.40;;;;;;;;;;5069025;28;20025;-52
2021/12/19 14:35:17;;;;;;;18.13;8.50;;;;;;;;;;5068453;28;20495;-52
2021/12/19 14:37:53;;;;;;;15.65;7.60;;;;;;;;;;5068571;28;20016;-50
2021/12/19 14:40:22;;;;;;;17.55;8.23;;;;;;;;;;5084641;28;20059;-50
2021/12/19 14:43:03;;;;;;;17.77;9.13;;;;;;;;;;5089365;28;20118;-50
2021/12/19 14:45:35;;;;;;;20.33;9.55;;;;;;;;;;5088651;28;20123;-48
2021/12/19 14:48:06;;;;;;;21.05;9.27;;;;;;;;;;5080550;28;20416;-47
2021/12/19 14:50:34;;;;;;;23.58;10.00;;;;;;;;;;5066859;28;20036;-50
2021/12/19 14:53:05;;;;;;;24.20;11.55;;;;;;;;;;5065052;28;20399;-47
2021/12/19 14:55:33;;;;;;;21.35;9.38;;;;;;;;;;5065317;28;20031;-51
2021/12/19 14:58:01;;;;;;;21.55;10.32;;;;;;;;;;5045198;28;20031;-49
2021/12/19 15:00:27;;;;;;;22.98;10.32;;;;;;;;;;5067990;28;20047;-45
2021/12/19 15:02:53;;;;;;;22.25;9.85;;;;;;;;;;5068219;28;20020;-49
2021/12/19 15:05:19;;;;;;;21.80;9.73;;;;;;;;;;5068368;28;20041;-49
2021/12/19 15:07:46;;;;;;;21.85;10.13;;;;;;;;;;5062321;28;20051;-50
2021/12/19 15:10:14;;;;;;;21.35;9.77;;;;;;;;;;5067080;28;20039;-49
2021/12/19 15:12:40;;;;;;;23.00;9.68;;;;;;;;;;5063935;28;20025;-51
2021/12/19 15:15:06;;;;;;;22.58;9.82;;;;;;;;;;5065832;28;20089;-51
2021/12/19 15:17:33;;;;;;;20.23;9.07;;;;;;;;;;5066452;28;20403;-47
2021/12/19 15:19:59;;;;;;;24.20;9.63;;;;;;;;;;5064255;28;20043;-50
2021/12/19 15:22:25;;;;;;;23.88;9.60;;;;;;;;;;5066021;28;20029;-50
2021/12/19 15:24:52;;;;;;;23.30;9.80;;;;;;;;;;5065588;28;20028;-47
2021/12/19 15:27:18;;;;;;;24.45;11.25;;;;;;;;;;5065177;28;20119;-50
2021/12/19 15:29:46;;;;;;;24.23;10.57;;;;;;;;;;5062998;28;20040;-47
2021/12/19 15:32:14;;;;;;;20.08;9.25;;;;;;;;;;5064575;28;20036;-46
2021/12/19 15:34:40;;;;;;;22.40;9.45;;;;;;;;;;5046264;28;20082;-45
2021/12/19 15:37:06;;;;;;;19.90;8.93;;;;;;;;;;5046913;28;20104;-48
2021/12/19 15:39:32;;;;;;;21.45;9.25;;;;;;;;;;5065657;28;20050;-48
2021/12/19 15:41:59;;;;;;;21.88;9.05;;;;;;;;;;5064941;28;20052;-46